Time;durP1;ratioP1;P1;durP2;ratioP2;P2;SDS_P1;SDS_P2;PMS_P1;PMS_P2;Temp;Humidity;BMP_temperature;BMP_pressure;BME280_temperature;BME280_humidity;BME280_pressure;Samples;Min_cycle;Max_cycle;Signal;HPM_P1;HPM_P2
2023/03/08 00:00:14;;;;;;;35.15;17.20;;;3.60;99.90;;;;;;5074737;28;20020;-78
2023/03/08 00:02:40;;;;;;;34.33;17.73;;;3.60;99.90;;;;;;5073481;28;20063;-78
2023/03/08 00:05:06;;;;;;;34.20;18.20;;;3.60;99.90;;;;;;5073182;28;20455;-78
2023/03/08 00:07:32;;;;;;;38.67;18.08;;;3.60;99.90;;;;;;5073098;28;20067;-78
2023/03/08 00:09:58;;;;;;;34.78;18.88;;;3.60;99.90;;;;;;5073106;28;20105;-78
2023/03/08 00:12:24;;;;;;;38.22;18.52;;;3.50;99.90;;;;;;5074265;28;20443;-78
2023/03/08 00:14:50;;;;;;;34.08;17.92;;;3.50;99.90;;;;;;5074254;28;20020;-79
2023/03/08 00:17:17;;;;;;;64.55;30.27;;;3.50;99.90;;;;;;5073019;28;20029;-77
2023/03/08 00:19:43;;;;;;;29.98;18.48;;;3.60;99.90;;;;;;5073070;28;20039;-78
2023/03/08 00:22:09;;;;;;;32.03;16.27;;;3.60;99.90;;;;;;5074252;28;20024;-79
2023/03/08 00:24:35;;;;;;;33.10;17.60;;;3.50;99.90;;;;;;5072923;28;20028;-80
2023/03/08 00:27:01;;;;;;;34.65;18.73;;;3.50;99.90;;;;;;5072789;28;20497;-79
2023/03/08 00:29:26;;;;;;;34.70;18.25;;;3.60;99.90;;;;;;5072736;28;20105;-81
2023/03/08 00:31:52;;;;;;;35.17;18.08;;;3.60;99.90;;;;;;5072594;28;20016;-80
2023/03/08 00:34:18;;;;;;;32.80;16.75;;;3.60;99.90;;;;;;5072791;28;20052;-80
2023/03/08 00:36:43;;;;;;;30.75;16.75;;;3.60;99.90;;;;;;5073946;28;20052;-79
2023/03/08 00:39:10;;;;;;;39.08;18.75;;;3.60;99.90;;;;;;5073084;28;20028;-79
2023/03/08 00:41:37;;;;;;;35.67;16.45;;;3.60;99.90;;;;;;5072653;28;20111;-81
2023/03/08 00:44:03;;;;;;;35.78;18.13;;;3.60;99.90;;;;;;5072902;28;20099;-81
2023/03/08 00:46:29;;;;;;;34.60;17.42;;;3.60;99.90;;;;;;5072106;28;20454;-80
2023/03/08 00:48:55;;;;;;;31.20;17.65;;;3.60;99.90;;;;;;5072386;28;20057;-78
2023/03/08 00:51:21;;;;;;;29.42;15.52;;;3.60;99.90;;;;;;5073664;28;20068;-78
2023/03/08 00:53:47;;;;;;;30.92;15.43;;;3.60;99.90;;;;;;5072372;28;20035;-78
2023/03/08 00:56:13;;;;;;;36.40;18.42;;;3.60;99.90;;;;;;5073105;28;20024;-80
2023/03/08 00:58:39;;;;;;;29.85;15.05;;;3.60;99.90;;;;;;5073497;28;20024;-78
2023/03/08 01:01:06;;;;;;;37.50;18.15;;;3.60;99.90;;;;;;5073454;28;20021;-78
2023/03/08 01:03:32;;;;;;;32.90;16.92;;;3.60;99.90;;;;;;5073910;28;20107;-78
2023/03/08 01:06:03;;;;;;;32.95;16.63;;;3.60;99.90;;;;;;5071927;28;20119;-77
2023/03/08 01:08:29;;;;;;;42.17;19.50;;;3.60;99.90;;;;;;5072164;28;20120;-78
2023/03/08 01:10:57;;;;;;;33.67;18.00;;;3.60;99.90;;;;;;5072036;28;20103;-78
2023/03/08 01:13:24;;;;;;;36.00;18.02;;;3.60;99.90;;;;;;5072145;28;20501;-78
2023/03/08 01:15:50;;;;;;;33.85;17.00;;;3.60;99.90;;;;;;5073277;28;20116;-78
2023/03/08 01:18:16;;;;;;;31.13;15.50;;;3.60;99.90;;;;;;5071960;28;20052;-78
2023/03/08 01:20:42;;;;;;;33.25;16.67;;;3.60;99.90;;;;;;5073142;28;20486;-78
2023/03/08 01:23:08;;;;;;;32.00;18.33;;;3.50;99.90;;;;;;5072023;28;20069;-79
2023/03/08 01:25:34;;;;;;;33.70;17.13;;;3.60;99.90;;;;;;5073092;28;20494;-78
2023/03/08 01:28:00;;;;;;;32.05;16.30;;;3.60;99.90;;;;;;5071949;28;20023;-78
2023/03/08 01:30:26;;;;;;;31.85;15.43;;;3.50;99.90;;;;;;5071906;28;20021;-78
2023/03/08 01:32:51;;;;;;;31.05;16.95;;;3.50;99.90;;;;;;5071852;28;20027;-78
2023/03/08 01:35:17;;;;;;;32.92;16.23;;;3.50;99.90;;;;;;5071900;28;20119;-77
2023/03/08 01:37:43;;;;;;;29.92;15.50;;;3.50;99.90;;;;;;5073094;28;20413;-78
2023/03/08 01:40:13;;;;;;;32.05;16.90;;;3.50;99.90;;;;;;5071891;28;20035;-78
2023/03/08 01:42:39;;;;;;;27.98;16.15;;;3.50;99.90;;;;;;5073136;28;20413;-77
2023/03/08 01:45:26;;;;;;;33.03;17.63;;;3.50;99.90;;;;;;5055526;28;20040;-78
2023/03/08 01:47:51;;;;;;;33.20;16.77;;;3.40;99.90;;;;;;5051636;28;20207;-78
2023/03/08 01:50:18;;;;;;;29.08;16.42;;;3.40;99.90;;;;;;5053087;28;20092;-80
2023/03/08 01:52:50;;;;;;;30.50;17.45;;;3.40;99.90;;;;;;5051967;28;20017;-78
2023/03/08 01:55:18;;;;;;;30.55;15.25;;;3.40;99.90;;;;;;5051555;28;20028;-78
2023/03/08 01:57:48;;;;;;;27.80;15.90;;;3.40;99.90;;;;;;5053157;28;20021;-80
2023/03/08 02:00:24;;;;;;;33.95;17.45;;;3.40;99.90;;;;;;5051466;28;20021;-78
2023/03/08 02:03:07;;;;;;;33.97;17.05;;;3.30;99.90;;;;;;5052925;28;20028;-80
2023/03/08 02:05:36;;;;;;;32.20;17.15;;;3.30;99.90;;;;;;5051405;28;20120;-80
2023/03/08 02:08:02;;;;;;;32.78;16.63;;;3.30;99.90;;;;;;5056379;28;20386;-78
2023/03/08 02:10:27;;;;;;;32.47;16.92;;;3.30;99.90;;;;;;5056621;28;20025;-80
2023/03/08 02:12:54;;;;;;;32.67;18.20;;;3.20;99.90;;;;;;5055707;28;20025;-80
2023/03/08 02:15:20;;;;;;;31.27;17.55;;;3.20;99.90;;;;;;5056807;28;20021;-78
2023/03/08 02:17:46;;;;;;;33.67;17.52;;;3.10;99.90;;;;;;5056643;28;20032;-78
2023/03/08 02:20:31;;;;;;;34.65;18.33;;;3.10;99.90;;;;;;5056568;28;20028;-77
2023/03/08 02:23:14;;;;;;;31.88;16.77;;;3.10;99.90;;;;;;5056613;28;20454;-78
2023/03/08 02:25:48;;;;;;;30.95;16.23;;;3.10;99.90;;;;;;5055032;28;20509;-80
2023/03/08 02:28:15;;;;;;;33.35;17.65;;;3.10;99.90;;;;;;5055224;28;20475;-79
2023/03/08 02:30:40;;;;;;;34.38;16.42;;;3.10;99.90;;;;;;5055127;28;20032;-78
2023/03/08 02:33:06;;;;;;;28.27;15.98;;;3.10;99.90;;;;;;5056335;28;20024;-77
2023/03/08 02:35:32;;;;;;;43.47;17.75;;;3.00;99.90;;;;;;5054870;28;20067;-77
2023/03/08 02:37:57;;;;;;;30.92;15.90;;;3.00;99.90;;;;;;5056241;28;20113;-77
2023/03/08 02:40:24;;;;;;;32.10;16.92;;;3.00;99.90;;;;;;5056155;28;20032;-79
2023/03/08 02:42:49;;;;;;;28.17;16.30;;;3.00;99.90;;;;;;5056230;28;20025;-77
2023/03/08 02:45:15;;;;;;;30.27;16.05;;;3.00;99.90;;;;;;5054774;28;20096;-77
2023/03/08 02:47:41;;;;;;;27.88;15.50;;;3.00;99.90;;;;;;5055825;28;20372;-79
2023/03/08 02:50:07;;;;;;;31.85;16.77;;;3.00;99.90;;;;;;5056129;28;20021;-78
2023/03/08 02:52:33;;;;;;;32.42;18.58;;;2.90;99.90;;;;;;5056013;28;20084;-77
2023/03/08 02:54:59;;;;;;;31.05;16.45;;;2.90;99.90;;;;;;5055955;28;20122;-79
2023/03/08 02:57:24;;;;;;;28.05;15.63;;;2.90;99.90;;;;;;5056169;28;20548;-79
2023/03/08 02:59:50;;;;;;;27.27;14.63;;;2.90;99.90;;;;;;5056158;28;20471;-79
2023/03/08 03:02:16;;;;;;;27.92;14.85;;;2.80;99.90;;;;;;5055639;28;20025;-81
2023/03/08 03:04:41;;;;;;;26.42;15.52;;;2.80;99.90;;;;;;5054377;28;20067;-78
2023/03/08 03:07:07;;;;;;;31.20;15.43;;;2.80;99.90;;;;;;5054344;28;20063;-79
2023/03/08 03:09:34;;;;;;;28.25;15.13;;;2.80;99.90;;;;;;5054572;28;20021;-79
2023/03/08 03:12:00;;;;;;;28.17;16.35;;;2.80;99.90;;;;;;5054632;28;20028;-78
2023/03/08 03:14:29;;;;;;;29.05;14.82;;;2.80;99.90;;;;;;5054374;28;20108;-78
2023/03/08 03:16:55;;;;;;;32.03;17.85;;;2.80;99.90;;;;;;5054288;28;20139;-79
2023/03/08 03:19:20;;;;;;;27.88;15.85;;;2.80;99.90;;;;;;5054639;28;20029;-78
2023/03/08 03:21:46;;;;;;;29.90;15.80;;;2.90;99.90;;;;;;5054283;28;20036;-78
2023/03/08 03:24:12;;;;;;;31.42;16.75;;;2.90;99.90;;;;;;5055478;28;20035;-79
2023/03/08 03:26:38;;;;;;;27.75;14.68;;;2.80;99.90;;;;;;5053961;28;20407;-79
2023/03/08 03:29:04;;;;;;;28.23;17.55;;;2.90;99.90;;;;;;5055398;28;20103;-79
2023/03/08 03:31:30;;;;;;;29.27;16.63;;;2.90;99.90;;;;;;5053981;28;20390;-79
2023/03/08 03:33:55;;;;;;;29.50;15.90;;;2.90;99.90;;;;;;5054210;28;20425;-77
2023/03/08 03:36:21;;;;;;;31.13;16.45;;;2.90;99.90;;;;;;5053984;28;20020;-78
2023/03/08 03:38:48;;;;;;;29.67;14.70;;;2.90;99.90;;;;;;5053926;28;20025;-78
2023/03/08 03:41:17;;;;;;;28.55;15.48;;;3.00;99.90;;;;;;5053764;28;20075;-77
2023/03/08 03:43:43;;;;;;;30.65;16.83;;;2.90;99.90;;;;;;5053693;28;20028;-78
2023/03/08 03:46:12;;;;;;;35.35;20.08;;;3.00;99.90;;;;;;5054618;28;20040;-78
2023/03/08 03:48:38;;;;;;;32.58;17.40;;;3.00;99.90;;;;;;5054916;28;20017;-79
2023/03/08 03:51:06;;;;;;;40.33;21.80;;;2.90;99.90;;;;;;5054910;28;20415;-79
2023/03/08 03:53:33;;;;;;;49.85;23.48;;;3.00;99.90;;;;;;5054839;28;20025;-78
2023/03/08 03:56:06;;;;;;;70.90;29.88;;;3.00;99.90;;;;;;5053700;28;20084;-77
2023/03/08 03:58:32;;;;;;;78.35;31.45;;;2.90;99.90;;;;;;5054733;28;20053;-78
2023/03/08 04:00:58;;;;;;;69.47;30.10;;;2.90;99.90;;;;;;5053447;28;20032;-79
2023/03/08 04:03:23;;;;;;;71.63;33.33;;;2.90;99.90;;;;;;5053434;28;20386;-79
2023/03/08 04:05:49;;;;;;;75.35;34.45;;;2.90;99.90;;;;;;5053154;28;20063;-78
2023/03/08 04:08:15;;;;;;;62.00;29.60;;;2.90;99.90;;;;;;5053227;28;20390;-78
2023/03/08 04:10:41;;;;;;;76.63;33.00;;;2.90;99.90;;;;;;5053125;28;20083;-78
2023/03/08 04:13:11;;;;;;;71.10;31.33;;;2.90;99.90;;;;;;5053212;28;20067;-79
2023/03/08 04:15:36;;;;;;;46.17;24.73;;;2.90;99.90;;;;;;5052974;28;20021;-79
2023/03/08 04:18:02;;;;;;;51.58;25.35;;;2.80;99.90;;;;;;5053153;28;20074;-79
2023/03/08 04:20:28;;;;;;;47.30;23.27;;;2.90;99.90;;;;;;5053224;28;20029;-79
2023/03/08 04:22:53;;;;;;;40.65;21.38;;;2.90;99.90;;;;;;5054336;28;20017;-79
2023/03/08 04:25:19;;;;;;;44.97;22.30;;;2.80;99.90;;;;;;5036403;28;20037;-78
2023/03/08 04:27:45;;;;;;;46.47;23.00;;;2.80;99.90;;;;;;5054222;28;20025;-79
2023/03/08 04:30:12;;;;;;;45.42;22.25;;;2.80;99.90;;;;;;5052727;28;20025;-80
2023/03/08 04:32:38;;;;;;;42.75;20.40;;;2.70;99.90;;;;;;5052805;28;20017;-79
2023/03/08 04:35:04;;;;;;;63.63;29.10;;;2.70;99.90;;;;;;5053109;28;20035;-78
2023/03/08 04:37:29;;;;;;;43.03;22.42;;;2.70;99.90;;;;;;5052611;28;20021;-79
2023/03/08 04:39:55;;;;;;;35.45;18.83;;;2.70;99.90;;;;;;5052658;28;20450;-78
2023/03/08 04:42:21;;;;;;;50.30;22.70;;;2.70;99.90;;;;;;5053864;28;20025;-78
2023/03/08 04:44:47;;;;;;;52.58;23.63;;;2.70;99.90;;;;;;5052667;28;20025;-77
2023/03/08 04:47:13;;;;;;;50.00;23.67;;;2.70;99.90;;;;;;5053659;28;20060;-77
2023/03/08 04:49:38;;;;;;;44.40;22.88;;;2.70;99.90;;;;;;5053762;28;20071;-77
2023/03/08 04:52:04;;;;;;;34.55;18.77;;;2.70;99.90;;;;;;5052435;28;20036;-79
2023/03/08 04:54:30;;;;;;;31.58;17.20;;;2.60;99.90;;;;;;5052422;28;20025;-78
2023/03/08 04:56:56;;;;;;;36.95;18.13;;;2.60;99.90;;;;;;5053731;28;20052;-78
2023/03/08 04:59:22;;;;;;;34.72;18.23;;;2.50;99.90;;;;;;5053669;28;20100;-78
2023/03/08 05:01:47;;;;;;;42.13;21.38;;;2.50;99.90;;;;;;5052232;28;20017;-78
2023/03/08 05:04:13;;;;;;;29.58;15.40;;;2.50;99.90;;;;;;5052205;28;20029;-80
2023/03/08 05:06:39;;;;;;;34.30;17.45;;;2.40;99.90;;;;;;5052411;28;20413;-78
2023/03/08 05:09:05;;;;;;;34.40;15.65;;;2.30;99.90;;;;;;5053540;28;20020;-77
2023/03/08 05:11:30;;;;;;;29.90;15.38;;;2.30;99.90;;;;;;5053367;28;20021;-77
2023/03/08 05:13:58;;;;;;;27.42;15.70;;;2.20;99.90;;;;;;5052141;28;20036;-78
2023/03/08 05:16:24;;;;;;;31.05;16.15;;;2.20;99.90;;;;;;5052863;28;20013;-79
2023/03/08 05:18:50;;;;;;;35.08;17.85;;;2.20;99.90;;;;;;5050610;28;20025;-79
2023/03/08 05:21:19;;;;;;;30.33;14.85;;;2.20;99.90;;;;;;5051042;28;20585;-77
2023/03/08 05:23:45;;;;;;;40.40;18.05;;;2.20;99.90;;;;;;5050068;28;20056;-78
2023/03/08 05:26:13;;;;;;;28.88;15.95;;;2.30;99.90;;;;;;5049729;28;20135;-79
2023/03/08 05:28:40;;;;;;;45.35;19.23;;;2.30;99.90;;;;;;5049792;28;20480;-81
2023/03/08 05:31:07;;;;;;;26.13;14.98;;;2.30;99.90;;;;;;5049676;28;20017;-80
2023/03/08 05:33:34;;;;;;;45.28;21.00;;;2.30;99.90;;;;;;5052322;28;20028;-77
2023/03/08 05:36:00;;;;;;;34.85;16.08;;;2.30;99.90;;;;;;5052940;28;20033;-78
2023/03/08 05:38:26;;;;;;;27.63;13.68;;;2.40;99.90;;;;;;5051730;28;20112;-77
2023/03/08 05:40:52;;;;;;;27.33;15.45;;;2.40;99.90;;;;;;5052571;28;20025;-78
2023/03/08 05:43:18;;;;;;;27.60;14.13;;;2.40;99.90;;;;;;5058364;28;20387;-77
2023/03/08 05:45:54;;;;;;;31.98;15.32;;;2.40;99.90;;;;;;5059271;28;20414;-78
2023/03/08 05:48:20;;;;;;;27.50;14.82;;;2.40;99.90;;;;;;5058407;28;20151;-78
2023/03/08 05:50:45;;;;;;;39.63;19.50;;;2.40;99.90;;;;;;5061980;28;20048;-79
2023/03/08 05:53:11;;;;;;;30.80;16.70;;;2.40;99.90;;;;;;5068713;28;20474;-77
2023/03/08 05:55:37;;;;;;;28.92;14.68;;;2.50;99.90;;;;;;5070446;28;20024;-79
2023/03/08 05:58:02;;;;;;;30.63;14.15;;;2.50;99.90;;;;;;5062885;28;20033;-78
2023/03/08 06:00:28;;;;;;;23.40;13.77;;;2.50;98.80;;;;;;5065578;28;20125;-79
2023/03/08 06:02:54;;;;;;;24.85;13.68;;;2.50;97.80;;;;;;5078169;28;20028;-79
2023/03/08 06:05:20;;;;;;;26.38;12.90;;;2.60;97.40;;;;;;5078120;28;20032;-78
2023/03/08 06:07:45;;;;;;;27.98;14.23;;;2.60;96.40;;;;;;5078249;28;20028;-78
2023/03/08 06:10:11;;;;;;;30.48;14.93;;;2.70;96.60;;;;;;5079081;28;20112;-77
2023/03/08 06:12:36;;;;;;;38.53;16.83;;;2.70;95.80;;;;;;5070886;28;20025;-78
2023/03/08 06:15:02;;;;;;;35.38;17.20;;;2.80;95.00;;;;;;5078102;28;20017;-78
2023/03/08 06:17:28;;;;;;;25.83;13.77;;;2.80;94.10;;;;;;5079255;28;20036;-78
2023/03/08 06:19:54;;;;;;;39.85;19.73;;;2.80;93.70;;;;;;5079187;28;20028;-79
2023/03/08 06:22:19;;;;;;;21.90;12.77;;;2.80;92.00;;;;;;5078695;28;20028;-78
2023/03/08 06:24:48;;;;;;;25.25;13.32;;;2.90;91.40;;;;;;5078598;28;20021;-77
2023/03/08 06:27:16;;;;;;;33.95;15.63;;;2.90;90.90;;;;;;5072249;28;20440;-77
2023/03/08 06:29:41;;;;;;;30.02;14.95;;;2.90;90.40;;;;;;5060917;28;20103;-77
2023/03/08 06:32:07;;;;;;;25.90;12.98;;;2.90;90.20;;;;;;5066388;28;20886;-79
2023/03/08 06:34:33;;;;;;;37.63;16.92;;;3.00;90.40;;;;;;5057475;28;20430;-79
2023/03/08 06:36:58;;;;;;;33.90;16.02;;;3.00;90.30;;;;;;5057370;28;20067;-79
2023/03/08 06:39:25;;;;;;;27.27;14.10;;;3.00;89.70;;;;;;5058802;28;20045;-79
2023/03/08 06:41:51;;;;;;;27.60;13.45;;;2.90;88.80;;;;;;5058492;28;20098;-79
2023/03/08 06:44:17;;;;;;;25.90;14.30;;;2.90;88.00;;;;;;5059122;28;20471;-77
2023/03/08 06:46:42;;;;;;;29.60;13.95;;;2.90;87.60;;;;;;5059037;28;20495;-78
2023/03/08 06:49:08;;;;;;;27.35;14.40;;;2.90;87.40;;;;;;5057940;28;20063;-78
2023/03/08 06:51:34;;;;;;;40.08;19.33;;;2.90;87.80;;;;;;5056134;28;20025;-77
2023/03/08 06:54:00;;;;;;;32.17;16.55;;;2.90;87.30;;;;;;5055069;28;20032;-78
2023/03/08 06:56:26;;;;;;;34.88;14.35;;;2.90;87.60;;;;;;5054043;28;20106;-79
2023/03/08 06:58:52;;;;;;;36.05;18.15;;;2.90;88.10;;;;;;5052526;28;20043;-79
2023/03/08 07:01:18;;;;;;;30.27;16.05;;;2.90;87.50;;;;;;5052515;28;20029;-77
2023/03/08 07:03:45;;;;;;;29.63;15.70;;;2.90;86.00;;;;;;5054004;28;20493;-77
2023/03/08 07:06:11;;;;;;;39.20;17.45;;;3.00;86.10;;;;;;5060901;28;20465;-80
2023/03/08 07:08:38;;;;;;;44.08;18.65;;;3.00;85.70;;;;;;5062965;28;20486;-80
2023/03/08 07:11:05;;;;;;;49.08;22.27;;;3.10;85.90;;;;;;5062371;28;20009;-79
2023/03/08 07:13:31;;;;;;;33.28;16.15;;;3.10;85.20;;;;;;5065518;28;20497;-77
2023/03/08 07:15:57;;;;;;;48.88;22.48;;;3.10;84.60;;;;;;5061227;28;20017;-77
2023/03/08 07:18:23;;;;;;;36.60;19.45;;;3.10;84.70;;;;;;5064909;28;20016;-77
2023/03/08 07:20:56;;;;;;;45.08;21.25;;;3.10;83.40;;;;;;5065447;28;20474;-80
2023/03/08 07:23:22;;;;;;;43.17;22.17;;;3.10;83.70;;;;;;5064367;28;20017;-78
2023/03/08 07:25:48;;;;;;;28.88;15.88;;;3.10;84.50;;;;;;5062622;28;20169;-78
2023/03/08 07:28:13;;;;;;;39.58;19.73;;;3.10;83.90;;;;;;5063387;28;20112;-79
2023/03/08 07:30:39;;;;;;;36.97;17.83;;;3.10;83.50;;;;;;5062455;28;20040;-80
2023/03/08 07:33:05;;;;;;;40.47;19.98;;;3.10;84.00;;;;;;5064336;28;20021;-78
2023/03/08 07:35:30;;;;;;;35.33;18.33;;;3.10;84.00;;;;;;5057586;28;20413;-78
2023/03/08 07:37:57;;;;;;;42.53;20.92;;;3.10;84.10;;;;;;5065568;28;20098;-78
2023/03/08 07:40:22;;;;;;;38.65;19.73;;;3.00;83.50;;;;;;5060581;28;20509;-77
2023/03/08 07:42:48;;;;;;;43.00;19.95;;;3.00;84.40;;;;;;5059339;28;20025;-77
2023/03/08 07:45:14;;;;;;;45.20;20.77;;;3.10;85.50;;;;;;5062687;28;20028;-78
2023/03/08 07:47:40;;;;;;;38.25;19.63;;;3.20;84.50;;;;;;5066214;28;20057;-79
2023/03/08 07:50:06;;;;;;;37.92;20.13;;;3.30;84.80;;;;;;5075310;28;20074;-79
2023/03/08 07:52:32;;;;;;;26.88;13.43;;;3.40;87.40;;;;;;5073705;28;20027;-78
2023/03/08 07:54:58;;;;;;;24.45;14.40;;;3.20;92.40;;;;;;5073628;28;20024;-77
2023/03/08 07:57:24;;;;;;;19.77;12.57;;;3.20;96.70;;;;;;5073436;28;20044;-79
2023/03/08 07:59:50;;;;;;;24.00;13.00;;;3.00;99.90;;;;;;5073411;28;20070;-77
2023/03/08 08:02:16;;;;;;;22.38;13.23;;;2.90;99.90;;;;;;5073439;28;20017;-79
2023/03/08 08:04:42;;;;;;;26.08;15.38;;;2.70;99.90;;;;;;5072997;28;20024;-77
2023/03/08 08:07:12;;;;;;;23.08;14.88;;;2.60;99.90;;;;;;5074668;28;20474;-78
2023/03/08 08:09:38;;;;;;;25.00;14.25;;;2.40;99.90;;;;;;5075129;28;20027;-77
2023/03/08 08:12:05;;;;;;;26.00;14.38;;;2.40;99.90;;;;;;5073339;28;20029;-78
2023/03/08 08:14:31;;;;;;;27.70;16.13;;;2.40;99.90;;;;;;5056814;28;20032;-79
2023/03/08 08:16:56;;;;;;;27.08;14.48;;;2.40;99.90;;;;;;5053592;28;20021;-79
2023/03/08 08:19:22;;;;;;;29.15;15.80;;;2.40;99.90;;;;;;5052269;28;20025;-79
2023/03/08 08:21:48;;;;;;;24.48;14.50;;;2.50;99.90;;;;;;5052194;28;20108;-77
2023/03/08 08:24:14;;;;;;;24.95;14.00;;;2.40;99.90;;;;;;5052179;28;20493;-77
2023/03/08 08:26:40;;;;;;;27.60;15.00;;;2.40;99.90;;;;;;5051973;28;20108;-78
2023/03/08 08:29:05;;;;;;;27.42;16.73;;;2.50;99.90;;;;;;5053611;28;20043;-77
2023/03/08 08:31:31;;;;;;;31.08;17.27;;;2.40;99.90;;;;;;5053255;28;20111;-78
2023/03/08 08:33:58;;;;;;;26.75;15.70;;;2.40;99.90;;;;;;5053428;28;20029;-78
2023/03/08 08:36:24;;;;;;;28.05;15.18;;;2.40;99.90;;;;;;5053365;28;20025;-77
2023/03/08 08:38:50;;;;;;;27.95;15.80;;;2.40;99.90;;;;;;5052808;28;20049;-78
2023/03/08 08:41:18;;;;;;;30.65;15.68;;;2.40;99.90;;;;;;5052675;28;20048;-77
2023/03/08 08:43:45;;;;;;;29.20;17.10;;;2.40;99.90;;;;;;5052767;28;20541;-77
2023/03/08 08:46:11;;;;;;;28.35;15.80;;;2.50;99.90;;;;;;5052345;28;20418;-78
2023/03/08 08:48:37;;;;;;;27.92;16.33;;;2.50;99.90;;;;;;5066062;28;20029;-78
2023/03/08 08:51:04;;;;;;;25.75;15.70;;;2.50;99.90;;;;;;5072389;28;20036;-77
2023/03/08 08:53:30;;;;;;;31.00;16.73;;;2.50;99.90;;;;;;5073765;28;20074;-78
2023/03/08 08:55:56;;;;;;;30.42;16.75;;;2.50;99.90;;;;;;5073661;28;20417;-78
2023/03/08 08:58:22;;;;;;;28.10;16.88;;;2.60;99.90;;;;;;5073720;28;20020;-79
2023/03/08 09:00:48;;;;;;;32.30;18.25;;;2.60;99.90;;;;;;5073523;28;20056;-79
2023/03/08 09:03:14;;;;;;;28.35;16.90;;;2.50;99.90;;;;;;5072332;28;20031;-78
2023/03/08 09:05:42;;;;;;;29.92;15.80;;;2.50;99.90;;;;;;5072212;28;20397;-77
2023/03/08 09:08:08;;;;;;;31.52;16.52;;;2.50;99.90;;;;;;5073553;28;20020;-79
2023/03/08 09:10:36;;;;;;;31.42;16.38;;;2.50;99.90;;;;;;5072210;28;20021;-79
2023/03/08 09:13:03;;;;;;;31.83;16.52;;;2.50;99.90;;;;;;5073141;28;20397;-77
2023/03/08 09:15:28;;;;;;;28.65;16.45;;;2.50;99.90;;;;;;5071762;28;20021;-77
2023/03/08 09:17:54;;;;;;;29.48;17.10;;;2.40;99.90;;;;;;5071761;28;20023;-78
2023/03/08 09:20:20;;;;;;;29.65;15.57;;;2.40;99.90;;;;;;5073245;28;20104;-77
2023/03/08 09:22:46;;;;;;;28.65;16.77;;;2.50;99.90;;;;;;5071951;28;20066;-79
2023/03/08 09:25:13;;;;;;;28.90;16.25;;;2.50;99.90;;;;;;5072982;28;20082;-79
2023/03/08 09:27:40;;;;;;;33.38;16.77;;;2.60;99.90;;;;;;5072374;28;20466;-77
2023/03/08 09:30:09;;;;;;;25.90;15.68;;;2.50;99.90;;;;;;5059902;28;20127;-79
2023/03/08 09:32:35;;;;;;;29.80;15.52;;;2.50;99.90;;;;;;5052303;28;20021;-79
2023/03/08 09:35:02;;;;;;;28.60;15.32;;;2.50;99.90;;;;;;5052360;28;20028;-79
2023/03/08 09:37:28;;;;;;;27.35;15.73;;;2.50;99.90;;;;;;5052145;28;20024;-79
2023/03/08 09:39:54;;;;;;;25.30;14.60;;;2.60;99.90;;;;;;5051103;28;20471;-79
2023/03/08 09:42:29;;;;;;;22.65;14.00;;;2.60;99.90;;;;;;5052653;28;20025;-79
2023/03/08 09:45:15;;;;;;;25.52;13.93;;;2.70;99.90;;;;;;5052989;28;20024;-77
2023/03/08 09:47:49;;;;;;;26.42;13.55;;;2.90;99.90;;;;;;5050078;28;20053;-78
2023/03/08 09:50:31;;;;;;;23.73;13.18;;;3.00;99.90;;;;;;5051000;28;20021;-78
2023/03/08 09:53:15;;;;;;;22.42;14.75;;;3.20;99.90;;;;;;5051287;28;20147;-79
2023/03/08 09:55:47;;;;;;;26.60;15.38;;;3.40;99.90;;;;;;5051680;28;20045;-78
2023/03/08 09:58:23;;;;;;;23.77;14.05;;;3.60;99.90;;;;;;5051863;28;20395;-78
2023/03/08 10:00:48;;;;;;;21.35;12.57;;;3.70;99.90;;;;;;5051705;28;20051;-79
2023/03/08 10:03:22;;;;;;;25.42;14.40;;;3.70;97.90;;;;;;5051683;28;20100;-79
2023/03/08 10:06:22;;;;;;;20.98;13.85;;;3.90;96.60;;;;;;5057051;28;20032;-78
2023/03/08 10:09:00;;;;;;;22.55;12.32;;;4.00;94.40;;;;;;5029462;28;20041;-77
2023/03/08 10:11:33;;;;;;;22.08;13.25;;;4.20;96.40;;;;;;5032792;28;20104;-77
2023/03/08 10:14:06;;;;;;;20.65;13.32;;;4.40;92.80;;;;;;5031649;28;20033;-79
2023/03/08 10:16:35;;;;;;;27.80;15.15;;;4.50;91.70;;;;;;5030427;28;20026;-79
2023/03/08 10:19:15;;;;;;;20.23;12.70;;;4.80;90.30;;;;;;5031721;28;20024;-78
2023/03/08 10:21:43;;;;;;;23.55;13.40;;;5.20;88.30;;;;;;5032863;28;20022;-79
2023/03/08 10:24:14;;;;;;;23.48;13.73;;;5.20;84.30;;;;;;5030973;28;20123;-78
2023/03/08 10:26:43;;;;;;;34.97;19.60;;;5.30;82.70;;;;;;5046031;28;20068;-77
2023/03/08 10:29:12;;;;;;;36.63;19.35;;;5.40;81.10;;;;;;5034393;28;20029;-79
2023/03/08 10:31:41;;;;;;;29.83;17.23;;;5.60;81.40;;;;;;5033222;28;20025;-79
2023/03/08 10:34:24;;;;;;;28.27;15.07;;;5.70;79.50;;;;;;5049807;28;20049;-79
2023/03/08 10:36:57;;;;;;;;;;;5.90;79.60;;;;;;5033654;28;20055;-78
2023/03/08 10:39:22;;;;;;;33.58;17.25;;;5.80;78.90;;;;;;5034802;28;19905;-79
2023/03/08 10:41:53;;;;;;;28.00;16.52;;;5.80;77.20;;;;;;5035328;28;20017;-79
2023/03/08 10:44:56;;;;;;;30.40;18.60;;;5.70;77.80;;;;;;5035244;28;20025;-78
2023/03/08 10:47:28;;;;;;;33.55;17.90;;;5.70;76.80;;;;;;5034951;28;20060;-78
2023/03/08 10:50:20;;;;;;;31.85;19.55;;;5.50;76.40;;;;;;5035035;28;20017;-79
2023/03/08 10:52:47;;;;;;;32.95;18.20;;;5.50;77.30;;;;;;5051800;28;20025;-78
2023/03/08 10:55:16;;;;;;;26.58;15.63;;;5.60;77.30;;;;;;5034933;28;20032;-79
2023/03/08 10:57:55;;;;;;;26.60;13.93;;;5.60;76.80;;;;;;5034868;28;20060;-79
2023/03/08 11:00:41;;;;;;;26.45;15.15;;;5.50;77.00;;;;;;5051425;28;20041;-78
2023/03/08 11:03:14;;;;;;;24.95;15.27;;;5.50;77.10;;;;;;5034900;28;20420;-79
2023/03/08 11:05:49;;;;;;;;;;;5.60;77.40;;;;;;5036250;28;20040;-78
2023/03/08 11:08:18;;;;;;;26.25;15.00;;;5.60;76.80;;;;;;5036050;28;19912;-79
2023/03/08 11:10:44;;;;;;;23.35;14.85;;;5.40;76.60;;;;;;5035855;28;20356;-78
2023/03/08 11:13:19;;;;;;;24.30;15.05;;;5.60;77.20;;;;;;5035799;28;20083;-79
2023/03/08 11:15:54;;;;;;;21.35;13.52;;;5.50;76.80;;;;;;5034465;28;20391;-79
2023/03/08 11:18:35;;;;;;;23.60;13.80;;;5.60;76.60;;;;;;5034479;28;20014;-78
2023/03/08 11:21:22;;;;;;;22.10;14.10;;;5.60;75.60;;;;;;5035738;28;20949;-78
2023/03/08 11:24:07;;;;;;;20.30;13.48;;;5.80;76.70;;;;;;5051034;28;20108;-78
2023/03/08 11:26:36;;;;;;;21.08;13.05;;;6.00;75.20;;;;;;5034383;28;20033;-78
2023/03/08 11:29:25;;;;;;;21.90;14.35;;;6.10;75.60;;;;;;5035625;28;20018;-78
2023/03/08 11:32:12;;;;;;;26.48;14.98;;;6.20;73.80;;;;;;5035477;28;20128;-78
2023/03/08 11:35:05;;;;;;;25.98;15.20;;;6.50;72.20;;;;;;5035351;28;20071;-78
2023/03/08 11:37:57;;;;;;;29.25;14.95;;;6.70;70.50;;;;;;5034160;28;20036;-78
2023/03/08 11:40:29;;;;;;;27.17;15.98;;;6.70;69.30;;;;;;5034537;28;20140;-78
2023/03/08 11:43:19;;;;;;;26.00;15.20;;;6.60;69.10;;;;;;5050985;28;20014;-78
2023/03/08 11:46:14;;;;;;;29.33;14.63;;;6.70;70.20;;;;;;5033854;28;20060;-78
2023/03/08 11:48:58;;;;;;;33.05;15.30;;;6.70;70.30;;;;;;5035267;28;20037;-79
2023/03/08 11:51:50;;;;;;;26.45;14.85;;;6.70;70.40;;;;;;5033781;28;20095;-78
2023/03/08 11:54:28;;;;;;;28.10;15.93;;;6.70;69.70;;;;;;5035269;28;20017;-79
2023/03/08 11:56:57;;;;;;;25.75;14.68;;;6.80;70.40;;;;;;5033683;28;20455;-79
2023/03/08 11:59:36;;;;;;;25.20;15.25;;;6.80;69.90;;;;;;5034989;28;20029;-79
2023/03/08 12:02:14;;;;;;;27.83;15.80;;;6.80;69.90;;;;;;5035044;28;20022;-79
2023/03/08 12:05:02;;;;;;;25.27;15.40;;;6.90;70.70;;;;;;5034852;28;20049;-78
2023/03/08 12:07:54;;;;;;;22.52;13.93;;;6.90;69.50;;;;;;5033534;28;20114;-78
2023/03/08 12:10:57;;;;;;;24.55;14.27;;;6.70;68.50;;;;;;5034162;28;20474;-78
2023/03/08 12:13:33;;;;;;;23.13;14.27;;;6.60;69.20;;;;;;5034689;28;20029;-79
2023/03/08 12:16:25;;;;;;;27.95;14.68;;;6.60;69.70;;;;;;5033243;28;20037;-78
2023/03/08 12:19:16;;;;;;;22.83;15.52;;;6.70;70.60;;;;;;5033236;28;20036;-78
2023/03/08 12:21:59;;;;;;;25.52;16.63;;;6.70;70.70;;;;;;5033246;28;20376;-78
2023/03/08 12:25:01;;;;;;;22.08;13.82;;;6.80;70.40;;;;;;5033867;28;20041;-78
2023/03/08 12:27:43;;;;;;;19.88;12.85;;;6.80;70.80;;;;;;5034034;28;20487;-78
2023/03/08 12:30:36;;;;;;;24.30;13.75;;;6.90;70.50;;;;;;5034442;28;20101;-78
2023/03/08 12:33:04;;;;;;;;;;;7.00;70.20;;;;;;5033278;28;20052;-78
2023/03/08 12:35:37;;;;;;;28.27;13.85;;;7.00;70.10;;;;;;5034433;28;19980;-79
2023/03/08 12:38:14;;;;;;;30.65;17.25;;;7.00;69.70;;;;;;5034291;28;20028;-78
2023/03/08 12:40:43;;;;;;;29.70;17.33;;;7.00;69.50;;;;;;5034320;28;20033;-79
2023/03/08 12:43:11;;;;;;;29.55;16.63;;;7.10;69.90;;;;;;5034005;28;20029;-78
2023/03/08 12:45:39;;;;;;;32.72;16.63;;;7.20;69.30;;;;;;5032844;28;20044;-79
2023/03/08 12:48:05;;;;;;;25.20;14.55;;;7.30;69.30;;;;;;5032589;28;20115;-78